createdAt,value
2018-12-29T00:00:34.338Z,71.12
2018-12-29T00:03:06.358Z,66.65
2018-12-29T00:05:38.939Z,70.12
2018-12-29T00:08:10.805Z,58.08
2018-12-29T00:10:42.918Z,66.10
2018-12-29T00:13:14.602Z,64.55
2018-12-29T00:15:46.449Z,169.85
2018-12-29T00:18:18.521Z,139.28
2018-12-29T00:20:50.570Z,263.27
2018-12-29T00:23:22.567Z,214.65
2018-12-29T00:25:54.632Z,178.02
2018-12-29T00:28:26.484Z,181.00
2018-12-29T00:30:58.337Z,275.40
2018-12-29T00:33:30.228Z,313.25
2018-12-29T00:36:01.903Z,254.03
2018-12-29T00:38:33.667Z,257.40
2018-12-29T00:41:05.337Z,242.05
2018-12-29T00:43:37.099Z,301.70
2018-12-29T00:46:08.887Z,289.70
2018-12-29T00:48:40.532Z,189.72
2018-12-29T00:51:12.218Z,150.53
2018-12-29T00:53:43.893Z,130.72
2018-12-29T00:56:15.716Z,137.00
2018-12-29T00:58:47.341Z,228.52
2018-12-29T01:01:19.079Z,189.22
2018-12-29T01:03:50.878Z,185.03
2018-12-29T01:06:22.581Z,187.47
2018-12-29T01:08:55.927Z,151.60
2018-12-29T01:11:27.847Z,94.92
2018-12-29T01:13:59.696Z,81.40
2018-12-29T01:16:31.952Z,96.35
2018-12-29T01:19:03.583Z,108.57
2018-12-29T01:21:35.244Z,91.63
2018-12-29T01:24:06.761Z,73.50
2018-12-29T01:26:38.791Z,93.00
2018-12-29T01:29:10.504Z,92.42
2018-12-29T01:31:42.581Z,95.42
2018-12-29T01:34:14.453Z,188.87
2018-12-29T01:36:46.173Z,158.60
2018-12-29T01:39:17.841Z,148.82
2018-12-29T01:41:49.583Z,208.63
2018-12-29T01:44:21.655Z,244.22
2018-12-29T01:46:53.366Z,222.10
2018-12-29T01:49:24.912Z,189.03
2018-12-29T01:51:56.735Z,209.22
2018-12-29T01:54:28.623Z,174.00
2018-12-29T01:57:00.561Z,170.45
2018-12-29T01:59:32.283Z,156.30
2018-12-29T02:02:04.093Z,155.55
2018-12-29T02:04:35.767Z,167.90
2018-12-29T02:07:07.448Z,137.95
2018-12-29T02:09:39.006Z,170.22
2018-12-29T02:12:10.869Z,178.60
2018-12-29T02:14:42.659Z,159.50
2018-12-29T02:17:14.391Z,168.05
2018-12-29T02:19:46.111Z,200.55
2018-12-29T02:22:17.644Z,114.52
2018-12-29T02:24:49.218Z,189.50
2018-12-29T02:27:20.801Z,155.03
2018-12-29T02:29:52.802Z,149.90
2018-12-29T02:32:24.485Z,174.87
2018-12-29T02:34:56.231Z,165.73
2018-12-29T02:37:27.873Z,207.03
2018-12-29T02:39:59.484Z,147.65
2018-12-29T02:42:31.198Z,153.85
2018-12-29T02:45:02.942Z,164.82
2018-12-29T02:47:34.529Z,95.38
2018-12-29T02:50:06.914Z,137.40
2018-12-29T02:52:38.771Z,87.97
2018-12-29T02:55:11.626Z,115.97
2018-12-29T02:57:43.286Z,111.65
2018-12-29T03:00:14.887Z,154.23
2018-12-29T03:02:46.705Z,122.22
2018-12-29T03:05:18.380Z,105.37
2018-12-29T03:07:50.085Z,150.60
2018-12-29T03:10:22.212Z,111.00
2018-12-29T03:12:54.108Z,115.30
2018-12-29T03:15:25.793Z,162.18
2018-12-29T03:17:57.536Z,107.17
2018-12-29T03:20:29.304Z,228.42
2018-12-29T03:23:00.917Z,269.62
2018-12-29T03:25:32.896Z,277.02
2018-12-29T03:28:04.899Z,280.85
2018-12-29T03:30:36.472Z,297.70
2018-12-29T03:33:08.183Z,304.18
2018-12-29T03:35:39.827Z,306.47
2018-12-29T03:38:11.454Z,289.35
2018-12-29T03:40:43.120Z,291.60
2018-12-29T03:43:14.666Z,233.55
2018-12-29T03:45:49.221Z,344.70
2018-12-29T03:48:19.473Z,368.55
2018-12-29T03:50:51.172Z,420.77
2018-12-29T03:53:23.034Z,252.47
2018-12-29T03:55:55.154Z,426.75
2018-12-29T03:58:26.712Z,374.90
2018-12-29T04:00:59.355Z,441.38
2018-12-29T04:03:31.081Z,588.50
2018-12-29T04:06:03.652Z,526.08
2018-12-29T04:08:35.268Z,469.90
2018-12-29T04:11:07.094Z,547.58
2018-12-29T04:13:40.406Z,457.88
2018-12-29T04:16:12.012Z,542.40
2018-12-29T04:18:43.693Z,1032.28
2018-12-29T04:21:15.487Z,593.27
2018-12-29T04:23:47.096Z,549.20
2018-12-29T04:26:19.300Z,818.50
2018-12-29T04:28:50.924Z,631.30
2018-12-29T04:31:22.582Z,646.55
2018-12-29T04:33:54.377Z,600.87
2018-12-29T04:36:26.153Z,694.62
2018-12-29T04:38:57.961Z,798.13
2018-12-29T04:41:29.523Z,593.00
2018-12-29T04:44:01.131Z,629.58
2018-12-29T04:46:32.879Z,731.00
2018-12-29T04:49:04.656Z,620.67
2018-12-29T04:51:36.449Z,422.27
2018-12-29T04:54:08.024Z,695.35
2018-12-29T04:56:39.694Z,733.20
2018-12-29T04:59:11.703Z,712.33
2018-12-29T05:01:43.427Z,421.75
2018-12-29T05:04:15.018Z,486.13
2018-12-29T05:06:46.698Z,595.87
2018-12-29T05:09:18.348Z,472.50
2018-12-29T05:11:49.937Z,550.67
2018-12-29T05:14:21.590Z,666.42
2018-12-29T05:16:53.212Z,637.87
2018-12-29T05:19:24.754Z,387.23
2018-12-29T05:21:56.298Z,483.98
2018-12-29T05:24:27.979Z,533.57
2018-12-29T05:26:59.622Z,460.33
2018-12-29T05:29:31.572Z,464.23
2018-12-29T05:32:03.093Z,438.30
2018-12-29T05:34:34.675Z,382.23
2018-12-29T05:37:06.286Z,414.97
2018-12-29T05:39:37.901Z,468.67
2018-12-29T05:42:09.463Z,421.47
2018-12-29T05:44:41.383Z,383.60
2018-12-29T05:47:13.025Z,342.87
2018-12-29T05:49:45.080Z,337.47
2018-12-29T05:52:16.630Z,324.35
2018-12-29T05:54:48.257Z,252.23
2018-12-29T05:57:20.084Z,255.70
2018-12-29T05:59:51.711Z,287.57
2018-12-29T06:02:23.404Z,277.22
2018-12-29T06:04:55.054Z,222.10
2018-12-29T06:07:26.699Z,170.57
2018-12-29T06:09:58.402Z,221.77
2018-12-29T06:12:29.983Z,277.70
2018-12-29T06:15:01.674Z,235.87
2018-12-29T06:17:33.393Z,180.43
2018-12-29T06:20:05.177Z,203.57
2018-12-29T06:22:36.899Z,211.43
2018-12-29T06:25:08.715Z,195.10
2018-12-29T06:27:40.685Z,191.30
2018-12-29T06:30:13.072Z,189.87
2018-12-29T06:32:44.815Z,274.83
2018-12-29T06:35:17.853Z,216.23
2018-12-29T06:37:49.740Z,150.47
2018-12-29T06:40:22.400Z,167.87
2018-12-29T06:42:54.153Z,278.97
2018-12-29T06:45:25.849Z,170.77
2018-12-29T06:47:57.715Z,165.63
2018-12-29T06:50:29.857Z,229.37
2018-12-29T06:53:01.793Z,236.03
2018-12-29T06:55:34.944Z,233.07
2018-12-29T06:58:06.983Z,149.70
2018-12-29T07:00:38.600Z,154.73
2018-12-29T07:03:10.098Z,154.87
2018-12-29T07:05:41.922Z,158.23
2018-12-29T07:08:13.567Z,150.37
2018-12-29T07:10:45.501Z,152.27
2018-12-29T07:13:17.155Z,146.57
2018-12-29T07:15:48.687Z,134.53
2018-12-29T07:18:20.409Z,126.10
2018-12-29T07:20:52.016Z,116.57
2018-12-29T07:23:24.153Z,126.93
2018-12-29T07:25:55.915Z,123.67
2018-12-29T07:28:27.473Z,122.63
2018-12-29T07:30:59.026Z,111.80
2018-12-29T07:33:30.776Z,122.53
2018-12-29T07:36:02.387Z,112.43
2018-12-29T07:38:34.066Z,118.67
2018-12-29T07:41:24.424Z,109.70
2018-12-29T07:43:56.441Z,113.23
2018-12-29T07:46:28.114Z,112.63
2018-12-29T07:48:59.967Z,104.37
2018-12-29T07:51:32.074Z,117.83
2018-12-29T07:54:04.852Z,113.27
2018-12-29T07:56:36.499Z,122.80
2018-12-29T07:59:08.161Z,115.57
2018-12-29T08:01:39.886Z,117.93
2018-12-29T08:04:11.892Z,127.57
2018-12-29T08:06:43.666Z,109.83
2018-12-29T08:09:15.523Z,126.60
2018-12-29T08:11:47.443Z,122.80
2018-12-29T08:14:19.191Z,116.93
2018-12-29T08:16:56.870Z,110.13
2018-12-29T08:19:24.527Z,114.87
2018-12-29T08:22:11.759Z,115.83
2018-12-29T08:24:43.723Z,114.50
2018-12-29T08:27:15.636Z,121.17
2018-12-29T08:29:47.766Z,107.70
2018-12-29T08:32:19.640Z,115.20
2018-12-29T08:34:51.749Z,114.13
2018-12-29T08:37:24.879Z,104.30
2018-12-29T08:39:57.099Z,103.13
2018-12-29T08:42:29.122Z,117.53
2018-12-29T08:45:01.271Z,105.70
2018-12-29T08:47:33.718Z,106.20
2018-12-29T08:50:12.755Z,116.17
2018-12-29T08:52:39.944Z,109.83
2018-12-29T08:55:12.260Z,105.00
2018-12-29T08:57:47.014Z,103.70
2018-12-29T09:00:19.107Z,94.63
2018-12-29T09:02:51.131Z,99.43
2018-12-29T09:05:22.809Z,103.93
2018-12-29T09:07:55.522Z,127.57
2018-12-29T09:10:27.983Z,96.90
2018-12-29T09:13:00.164Z,92.20
2018-12-29T09:15:32.621Z,96.77
2018-12-29T09:18:04.497Z,90.13
2018-12-29T09:20:36.417Z,85.60
2018-12-29T09:23:08.701Z,95.20
2018-12-29T09:25:40.950Z,87.30
2018-12-29T09:28:13.131Z,81.17
2018-12-29T09:30:46.877Z,86.07
2018-12-29T09:33:20.993Z,86.80
2018-12-29T09:35:53.880Z,70.97
2018-12-29T09:38:26.967Z,72.70
2018-12-29T09:40:59.655Z,67.90
2018-12-29T09:43:31.920Z,78.33
2018-12-29T09:46:05.315Z,67.27
2018-12-29T09:48:39.417Z,64.77
2018-12-29T09:51:13.521Z,56.00
2018-12-29T09:53:46.481Z,57.30
2018-12-29T09:56:19.074Z,52.83
2018-12-29T09:58:51.520Z,42.00
2018-12-29T10:01:25.167Z,43.70
2018-12-29T10:03:57.139Z,45.67
2018-12-29T10:06:29.049Z,49.13
2018-12-29T10:09:01.314Z,56.40
2018-12-29T10:11:34.431Z,48.97
2018-12-29T10:14:07.090Z,48.07
2018-12-29T10:16:41.582Z,50.87
2018-12-29T10:19:13.647Z,48.07
2018-12-29T10:21:45.716Z,47.67
2018-12-29T10:24:17.807Z,50.10
2018-12-29T10:26:49.920Z,47.37
2018-12-29T10:29:22.666Z,50.13
2018-12-29T10:31:55.302Z,49.73
2018-12-29T10:34:27.889Z,49.47
2018-12-29T10:37:00.136Z,53.47
2018-12-29T10:39:33.274Z,52.70
2018-12-29T10:42:06.725Z,48.03
2018-12-29T10:44:38.898Z,50.07
2018-12-29T10:47:10.455Z,55.10
2018-12-29T10:49:42.376Z,53.20
2018-12-29T10:52:14.934Z,51.67
2018-12-29T10:54:47.045Z,48.47
2018-12-29T10:57:20.995Z,47.13
2018-12-29T10:59:54.719Z,48.47
2018-12-29T11:02:26.897Z,49.20
2018-12-29T11:04:58.977Z,44.67
2018-12-29T11:07:33.173Z,47.53
2018-12-29T11:10:05.947Z,50.57
2018-12-29T11:12:38.292Z,47.20
2018-12-29T11:15:10.167Z,46.83
2018-12-29T11:17:45.483Z,45.67
2018-12-29T11:20:17.787Z,43.30
2018-12-29T11:22:50.290Z,44.33
2018-12-29T11:25:22.379Z,43.10
2018-12-29T11:27:54.748Z,44.97
2018-12-29T11:30:26.702Z,45.23
2018-12-29T11:32:59.687Z,44.63
2018-12-29T11:35:31.791Z,45.43
2018-12-29T11:38:04.144Z,40.53
2018-12-29T11:40:36.477Z,39.97
2018-12-29T11:43:09.910Z,41.03
2018-12-29T11:45:42.462Z,43.13
2018-12-29T11:48:14.747Z,40.83
2018-12-29T11:50:46.915Z,43.90
2018-12-29T11:53:18.881Z,45.10
2018-12-29T11:55:54.348Z,41.53
2018-12-29T11:58:31.464Z,41.33
2018-12-29T12:01:06.551Z,41.73
2018-12-29T12:03:46.524Z,39.40
2018-12-29T12:06:19.330Z,41.50
2018-12-29T12:08:52.585Z,42.90
2018-12-29T12:11:26.771Z,40.03
2018-12-29T12:13:59.047Z,40.23
2018-12-29T12:16:30.859Z,36.80
2018-12-29T12:19:02.718Z,44.03
2018-12-29T12:21:35.211Z,42.77
2018-12-29T12:24:07.446Z,43.63
2018-12-29T12:26:41.235Z,43.90
2018-12-29T12:29:14.408Z,39.40
2018-12-29T12:31:48.195Z,42.83
2018-12-29T12:34:20.478Z,39.97
2018-12-29T12:36:52.726Z,42.17
2018-12-29T12:39:24.785Z,39.60
2018-12-29T12:41:56.769Z,40.50
2018-12-29T12:44:29.712Z,59.60
2018-12-29T12:47:01.712Z,46.03
2018-12-29T12:49:33.866Z,37.07
2018-12-29T12:52:05.883Z,42.03
2018-12-29T12:54:41.755Z,49.13
2018-12-29T12:57:16.507Z,50.67
2018-12-29T12:59:50.468Z,262.93
2018-12-29T13:02:24.054Z,120.07
2018-12-29T13:04:58.423Z,44.40
2018-12-29T13:07:32.889Z,40.03
2018-12-29T13:10:05.815Z,39.63
2018-12-29T13:12:39.187Z,37.30
2018-12-29T13:15:13.897Z,38.50
2018-12-29T13:17:46.992Z,39.53
2018-12-29T13:20:20.272Z,40.80
2018-12-29T13:22:52.499Z,37.77
2018-12-29T13:25:26.033Z,40.37
2018-12-29T13:28:08.555Z,35.97
2018-12-29T13:30:45.546Z,37.23
2018-12-29T13:33:18.501Z,38.27
2018-12-29T13:35:51.164Z,39.97
2018-12-29T13:38:29.394Z,38.47
2018-12-29T13:41:02.939Z,37.87
2018-12-29T13:43:35.966Z,38.03
2018-12-29T13:46:13.643Z,34.83
2018-12-29T13:48:47.558Z,37.07
2018-12-29T13:51:21.432Z,35.27
2018-12-29T13:53:54.299Z,34.80
2018-12-29T13:56:30.247Z,35.53
2018-12-29T13:59:05.123Z,38.77
2018-12-29T14:01:40.608Z,37.60
2018-12-29T14:04:16.779Z,35.63
2018-12-29T14:06:51.851Z,38.17
2018-12-29T14:09:25.660Z,38.30
2018-12-29T14:12:00.085Z,40.17
2018-12-29T14:14:35.237Z,37.13
2018-12-29T14:17:07.323Z,35.17
2018-12-29T14:19:42.007Z,38.27
2018-12-29T14:22:17.740Z,41.00
2018-12-29T14:24:50.411Z,38.53
2018-12-29T14:27:22.859Z,38.23
2018-12-29T14:29:54.974Z,39.23
2018-12-29T14:32:27.320Z,37.27
2018-12-29T14:35:00.313Z,42.07
2018-12-29T14:37:34.456Z,39.97
2018-12-29T14:40:06.731Z,41.60
2018-12-29T14:42:39.675Z,42.47
2018-12-29T14:45:13.291Z,43.67
2018-12-29T14:47:45.568Z,43.63
2018-12-29T14:50:17.702Z,42.20
2018-12-29T14:52:49.851Z,45.23
2018-12-29T14:55:21.655Z,49.60
2018-12-29T14:57:56.829Z,49.47
2018-12-29T15:00:28.950Z,47.87
2018-12-29T15:03:02.254Z,51.00
2018-12-29T15:05:34.547Z,60.53
2018-12-29T15:08:07.954Z,124.97
2018-12-29T15:10:39.977Z,64.77
2018-12-29T15:13:12.993Z,58.13
2018-12-29T15:15:46.965Z,50.17
2018-12-29T15:18:19.200Z,51.17
2018-12-29T15:20:51.566Z,49.83
2018-12-29T15:23:24.264Z,45.87
2018-12-29T15:25:57.232Z,53.00
2018-12-29T15:28:29.597Z,45.23
2018-12-29T15:31:02.405Z,51.70
2018-12-29T15:33:36.794Z,51.67
2018-12-29T15:36:16.014Z,72.30
2018-12-29T15:38:44.518Z,67.63
2018-12-29T15:41:17.984Z,53.03
2018-12-29T15:43:51.859Z,51.77
2018-12-29T15:46:24.344Z,50.40
2018-12-29T15:49:18.031Z,47.57
2018-12-29T15:51:51.544Z,47.93
2018-12-29T15:54:25.806Z,48.80
2018-12-29T15:56:57.905Z,52.53
2018-12-29T15:59:30.341Z,50.57
2018-12-29T16:02:02.687Z,45.70
2018-12-29T16:04:36.073Z,46.17
2018-12-29T16:07:08.399Z,48.53
2018-12-29T16:09:43.485Z,52.80
2018-12-29T16:12:16.705Z,51.17
2018-12-29T16:14:49.123Z,53.83
2018-12-29T16:17:21.116Z,52.70
2018-12-29T16:19:54.015Z,57.90
2018-12-29T16:22:26.255Z,54.50
2018-12-29T16:24:58.823Z,56.03
2018-12-29T16:27:31.417Z,66.23
2018-12-29T16:30:06.208Z,65.57
2018-12-29T16:32:38.787Z,60.53
2018-12-29T16:35:11.866Z,65.63
2018-12-29T16:37:47.125Z,74.93
2018-12-29T16:40:20.600Z,99.70
2018-12-29T16:42:53.792Z,67.67
2018-12-29T16:45:27.725Z,112.23
2018-12-29T16:48:01.582Z,81.27
2018-12-29T16:50:34.671Z,69.63
2018-12-29T16:53:07.037Z,68.80
2018-12-29T16:55:40.682Z,68.03
2018-12-29T16:58:13.290Z,64.27
2018-12-29T17:00:46.720Z,66.50
2018-12-29T17:03:19.158Z,65.23
2018-12-29T17:05:51.686Z,71.90
2018-12-29T17:08:24.078Z,81.00
2018-12-29T17:10:57.820Z,77.20
2018-12-29T17:13:32.091Z,81.37
2018-12-29T17:16:05.669Z,71.43
2018-12-29T17:18:37.932Z,84.30
2018-12-29T17:21:11.513Z,75.47
2018-12-29T17:23:46.054Z,72.83
2018-12-29T17:26:18.731Z,79.80
2018-12-29T17:28:51.061Z,69.30
2018-12-29T17:31:28.111Z,69.87
2018-12-29T17:34:02.590Z,74.83
2018-12-29T17:36:41.917Z,73.47
2018-12-29T17:39:14.271Z,74.03
2018-12-29T17:41:46.711Z,76.73
2018-12-29T17:44:19.993Z,77.37
2018-12-29T17:46:53.190Z,74.50
2018-12-29T17:49:26.067Z,83.70
2018-12-29T17:51:59.612Z,76.67
2018-12-29T17:54:32.277Z,87.20
2018-12-29T17:57:08.549Z,69.53
2018-12-29T17:59:41.611Z,78.20
2018-12-29T18:02:13.908Z,81.03
2018-12-29T18:04:46.134Z,89.67
2018-12-29T18:07:19.533Z,102.30
2018-12-29T18:09:57.157Z,84.97
2018-12-29T18:12:26.596Z,110.10
2018-12-29T18:15:00.830Z,125.40
2018-12-29T18:17:33.526Z,135.20
2018-12-29T18:20:05.843Z,124.97
2018-12-29T18:22:38.337Z,109.40
2018-12-29T18:25:10.322Z,106.83
2018-12-29T18:27:42.587Z,117.07
2018-12-29T18:30:16.444Z,160.30
2018-12-29T18:32:48.742Z,146.47
2018-12-29T18:35:20.501Z,134.93
2018-12-29T18:37:53.729Z,208.57
2018-12-29T18:40:26.598Z,167.43
2018-12-29T18:43:00.134Z,125.43
2018-12-29T18:45:32.815Z,227.43
2018-12-29T18:48:05.463Z,159.47
2018-12-29T18:50:39.580Z,166.27
2018-12-29T18:53:11.532Z,254.53
2018-12-29T18:55:45.157Z,246.80
2018-12-29T18:58:17.254Z,430.37
2018-12-29T19:00:51.080Z,383.13
2018-12-29T19:03:23.543Z,373.63
2018-12-29T19:05:55.463Z,371.63
2018-12-29T19:08:28.171Z,422.37
2018-12-29T19:11:00.215Z,419.93
2018-12-29T19:13:32.628Z,255.03
2018-12-29T19:16:05.943Z,402.47
2018-12-29T19:18:41.585Z,526.30
2018-12-29T19:21:12.281Z,317.77
2018-12-29T19:23:46.096Z,467.07
2018-12-29T19:26:18.822Z,527.07
2018-12-29T19:28:51.270Z,251.93
2018-12-29T19:31:23.935Z,455.50
2018-12-29T19:33:55.784Z,432.60
2018-12-29T19:36:29.537Z,416.47
2018-12-29T19:39:02.765Z,438.90
2018-12-29T19:41:35.228Z,688.43
2018-12-29T19:44:07.995Z,495.03
2018-12-29T19:46:41.362Z,580.20
2018-12-29T19:49:13.658Z,347.53
2018-12-29T19:51:46.360Z,395.70
2018-12-29T19:54:19.095Z,369.57
2018-12-29T19:56:52.501Z,512.23
2018-12-29T19:59:25.456Z,368.47
2018-12-29T20:01:59.019Z,924.83
2018-12-29T20:04:32.189Z,818.70
2018-12-29T20:07:07.439Z,590.90
2018-12-29T20:09:47.813Z,454.57
2018-12-29T20:12:24.808Z,770.60
2018-12-29T20:15:00.426Z,555.10
2018-12-29T20:17:35.839Z,399.37
2018-12-29T20:20:16.035Z,405.80
2018-12-29T20:22:58.397Z,313.43
2018-12-29T20:25:38.130Z,393.83
2018-12-29T20:28:14.650Z,384.23
2018-12-29T20:30:59.075Z,517.40
2018-12-29T20:33:33.971Z,459.93
2018-12-29T20:36:10.359Z,348.10
2018-12-29T20:38:49.964Z,275.43
2018-12-29T20:41:30.093Z,339.70
2018-12-29T20:44:03.797Z,353.57
2018-12-29T20:46:46.428Z,340.60
2018-12-29T20:49:23.267Z,459.63
2018-12-29T20:52:00.070Z,430.97
2018-12-29T20:54:34.423Z,523.47
2018-12-29T20:57:13.730Z,376.80
2018-12-29T20:59:49.868Z,688.37
2018-12-29T21:02:29.636Z,651.70
2018-12-29T21:05:22.075Z,917.70
2018-12-29T21:07:58.794Z,454.20
2018-12-29T21:10:33.923Z,628.47
2018-12-29T21:13:10.970Z,257.50
2018-12-29T21:15:50.007Z,410.27
2018-12-29T21:18:29.548Z,403.07
2018-12-29T21:21:04.714Z,451.37
2018-12-29T21:23:45.128Z,171.03
2018-12-29T21:26:21.443Z,242.77
2018-12-29T21:28:58.853Z,182.73
2018-12-29T21:31:33.579Z,177.90
2018-12-29T21:34:10.644Z,180.63
2018-12-29T21:36:51.035Z,240.13
2018-12-29T21:39:32.831Z,266.33
2018-12-29T21:42:10.296Z,336.20
2018-12-29T21:44:47.051Z,393.80
2018-12-29T21:47:30.523Z,272.77
2018-12-29T21:50:29.553Z,357.63
2018-12-29T21:53:03.178Z,286.47
2018-12-29T21:55:44.327Z,398.80
2018-12-29T21:58:19.883Z,280.00
2018-12-29T22:00:54.744Z,150.10
2018-12-29T22:03:30.300Z,182.50
2018-12-29T22:06:08.111Z,114.33
2018-12-29T22:08:42.621Z,105.97
2018-12-29T22:11:17.627Z,134.40
2018-12-29T22:13:55.379Z,97.87
2018-12-29T22:16:32.392Z,92.90
2018-12-29T22:19:10.989Z,125.17
2018-12-29T22:21:48.073Z,140.27
2018-12-29T22:24:23.617Z,128.57
2018-12-29T22:27:01.849Z,111.93
2018-12-29T22:29:40.855Z,89.00
2018-12-29T22:32:17.443Z,81.47
2018-12-29T22:34:54.505Z,96.97
2018-12-29T22:37:28.821Z,83.30
2018-12-29T22:40:06.688Z,71.53
2018-12-29T22:42:41.664Z,68.47
2018-12-29T22:45:17.088Z,58.60
2018-12-29T22:47:51.007Z,59.10
2018-12-29T22:50:30.731Z,49.60
2018-12-29T22:53:06.658Z,53.47
2018-12-29T22:55:44.443Z,50.73
2018-12-29T22:58:19.597Z,54.67
2018-12-29T23:00:54.556Z,51.23
2018-12-29T23:03:28.000Z,54.43
2018-12-29T23:06:05.425Z,64.30
2018-12-29T23:08:39.801Z,62.97
2018-12-29T23:11:17.404Z,60.97
2018-12-29T23:13:52.138Z,58.13
2018-12-29T23:16:27.785Z,55.80
2018-12-29T23:19:04.576Z,52.47
2018-12-29T23:21:39.130Z,48.87
2018-12-29T23:24:14.488Z,47.13
2018-12-29T23:26:49.399Z,47.27
2018-12-29T23:29:24.613Z,54.67
2018-12-29T23:31:59.808Z,51.83
2018-12-29T23:34:33.156Z,56.63
2018-12-29T23:37:04.959Z,54.03
2018-12-29T23:39:37.067Z,56.57
2018-12-29T23:42:09.061Z,65.73
2018-12-29T23:44:40.770Z,67.20
2018-12-29T23:47:12.842Z,62.30
2018-12-29T23:49:44.700Z,65.70
2018-12-29T23:52:17.005Z,64.57
2018-12-29T23:54:49.008Z,68.87
2018-12-29T23:57:21.269Z,66.53
2018-12-29T23:59:53.630Z,65.07
